Galena, Nevada Weather observations

Data are for 60 minute period ending nearest time listed.
 Day   Time    Ave.   Ave.  Ave.  Vector   Max.   Total    Solar   
  of    of     Air    Rel.  Wind   Wind    Wind  Precip.   Rad.    
Year   Day     Temp.  Hum.  Speed  Dir.    Gust                    
2026   (PST)    F      %     mph   deg.    mph     in.     W/m2    
------------------------------------------------------------------- 
 121   18:00   66.0    15    0.0   278      6.0    0.62     130  
 121   19:00   60.0    15    5.0   340     11.0    0.62      43  
 121   20:00   56.0    21    4.0   240     12.0    0.62       1  
 121   21:00   56.0    20    2.0   263      6.0    0.62       0  
 121   22:00   55.0    25    4.0   243      7.0    0.62       0  
 121   23:00   52.0    24    4.0   247      7.0    0.62       0  
 122    0:00   52.0    25    1.0   265      5.0    0.62       0  
 122    1:00   51.0    24    3.0   249      6.0    0.62       0  
 122    2:00   51.0    28    3.0   268      5.0    0.62       0  
 122    3:00   50.0    35    2.0   235      6.0    0.62       0  
 122    4:00   48.0    39    2.0   265      4.0    0.62       0  
 122    5:00   47.0    42    1.0   266      6.0    0.62       0  
 122    6:00   50.0    45    3.0   276      5.0    0.62      22  
 122    7:00   53.0    46    2.0   252      6.0    0.62     117  
 122    8:00   61.0    35    2.0   163      7.0    0.62     340  
 122    9:00   61.0    34    8.0   160     13.0    0.62     339  
 122   10:00   63.0    30    9.0   165     15.0    0.62     425  
 122   11:00   68.0    26    9.0   157     17.0    0.62     729  
 122   12:00   65.0    27    8.0   180     19.0    0.62     447  
 122   13:00   65.0    28    7.0   171     16.0    0.62     255  
 122   14:00   65.0    29    4.0   180     23.0    0.62     298  
 122   15:00   66.0    28    6.0   236     26.0    0.62     338  
 122   16:00   63.0    31    2.0   125     14.0    0.62     153  
 122   17:00   56.0    54    5.0    58     15.0    0.62      72  

Return to Galena, Nevada graphs page.


Western Regional Climate Center,wrcc@dri.edu